Time;durP1;ratioP1;P1;durP2;ratioP2;P2;SDS_P1;SDS_P2;PMS_P1;PMS_P2;Temp;Humidity;BMP_temperature;BMP_pressure;BME280_temperature;BME280_humidity;BME280_pressure;Samples;Min_cycle;Max_cycle;Signal;HPM_P1;HPM_P2
2024/02/27 00:00:28;;;;;;;18.80;14.50;;;7.10;99.90;;;-141.84;81.42;21474.63;5091217;28;20295;-64
2024/02/27 00:02:58;;;;;;;20.13;14.67;;;7.10;99.90;;;-141.84;81.20;21155.44;5090613;28;20207;-61
2024/02/27 00:05:27;;;;;;;19.50;14.30;;;7.20;99.90;;;-141.84;81.55;22149.72;5090992;28;20540;-62
2024/02/27 00:07:56;;;;;;;20.07;14.63;;;7.20;99.90;;;-141.84;83.15;25834.25;5090829;28;20238;-62
2024/02/27 00:10:24;;;;;;;20.97;14.87;;;7.10;99.90;;;-141.84;82.23;22737.47;5082228;28;20229;-61
2024/02/27 00:12:53;;;;;;;17.37;13.50;;;7.10;99.90;;;-141.84;81.90;22814.75;5090306;28;20231;-61
2024/02/27 00:15:22;;;;;;;19.30;14.57;;;7.10;99.90;;;-141.84;82.65;24393.41;5090376;28;20218;-61
2024/02/27 00:17:50;;;;;;;17.17;13.73;;;7.00;99.90;;;-141.84;81.49;21671.84;5090008;28;20387;-62
2024/02/27 00:20:20;;;;;;;17.70;13.97;;;7.10;99.90;;;-141.84;82.71;24293.69;5090977;28;20253;-64
2024/02/27 00:22:49;;;;;;;19.27;14.23;;;7.00;99.90;;;-141.84;82.72;24155.34;5090527;28;20224;-62
2024/02/27 00:25:17;;;;;;;17.77;13.73;;;7.00;99.90;;;-141.84;82.79;25280.66;5090096;28;20251;-61
2024/02/27 00:27:47;;;;;;;18.60;13.60;;;7.00;99.90;;;-141.84;81.60;22005.34;5088839;28;20205;-60
2024/02/27 00:30:17;;;;;;;16.50;13.93;;;7.10;99.90;;;-141.84;82.40;23776.91;5090839;28;20193;-62
2024/02/27 00:32:45;;;;;;;19.33;13.93;;;7.00;99.90;;;-141.84;83.71;28257.25;5089458;28;20219;-61
2024/02/27 00:35:17;;;;;;;17.43;13.90;;;7.00;99.90;;;-141.84;83.76;28063.78;5093823;28;20718;-60
2024/02/27 00:37:45;;;;;;;17.47;14.00;;;6.60;99.90;;;-141.84;84.37;30852.97;5093428;28;20215;-61
2024/02/27 00:40:16;;;;;;;19.23;14.00;;;6.90;99.90;;;-141.84;84.76;31784.47;5094751;28;20542;-62
2024/02/27 00:42:45;;;;;;;17.30;12.80;;;6.90;99.90;;;-141.84;83.66;26791.06;5093960;28;20287;-61
2024/02/27 00:45:15;;;;;;;18.33;13.23;;;6.90;99.90;;;-141.84;85.40;34855.81;5094147;28;20192;-61
2024/02/27 00:47:44;;;;;;;21.17;13.67;;;6.90;99.90;;;-141.84;85.53;39634.81;5093628;28;20219;-61
2024/02/27 00:50:12;;;;;;;19.53;14.60;;;6.80;99.90;;;-141.84;84.62;32447.09;5094107;28;20211;-62
2024/02/27 00:52:40;;;;;;;16.60;13.43;;;6.60;99.90;;;-141.84;84.58;32587.78;5093649;28;20223;-61
2024/02/27 00:55:09;;;;;;;16.90;13.33;;;6.80;99.90;;;-141.84;83.90;28862.22;5093408;28;20273;-61
2024/02/27 00:57:40;;;;;;;16.00;13.37;;;6.80;99.90;;;-141.84;83.18;25142.25;5093315;28;20270;-61
2024/02/27 01:00:12;;;;;;;19.47;14.27;;;6.90;99.90;;;-141.84;84.99;34743.59;5093889;28;20196;-60
2024/02/27 01:02:42;;;;;;;18.03;13.23;;;6.80;99.90;;;-141.84;83.90;29958.31;5085743;28;20216;-61
2024/02/27 01:05:11;;;;;;;16.07;12.13;;;6.80;99.90;;;-141.84;82.29;24049.53;5093205;28;20223;-61
2024/02/27 01:07:39;;;;;;;17.07;13.20;;;6.90;99.90;;;-141.84;81.31;21433.97;5093973;28;20295;-60
2024/02/27 01:10:09;;;;;;;15.33;12.63;;;7.00;99.90;;;-141.84;80.23;19933.75;5091361;28;20216;-60
2024/02/27 01:12:39;;;;;;;14.23;11.77;;;7.00;99.90;;;-141.84;80.74;20447.97;5092463;28;20269;-60
2024/02/27 01:15:09;;;;;;;14.10;12.33;;;7.00;99.90;;;-141.84;82.98;24299.81;5092682;28;20192;-61
2024/02/27 01:17:40;;;;;;;16.43;12.93;;;6.90;99.90;;;-141.84;82.38;23148.34;5093955;28;20223;-61
2024/02/27 01:20:09;;;;;;;13.83;11.17;;;7.00;99.90;;;-141.84;81.38;21448.19;5091918;28;20634;-61
2024/02/27 01:22:38;;;;;;;14.27;11.70;;;6.90;99.90;;;-141.84;78.87;19301.72;5092182;28;20224;-60
2024/02/27 01:25:08;;;;;;;13.17;11.50;;;7.10;99.90;;;-141.84;78.89;19271.25;5091038;28;20220;-61
2024/02/27 01:27:38;;;;;;;15.47;11.97;;;7.10;99.90;;;-141.84;80.04;19669.53;5090971;28;20253;-61
2024/02/27 01:30:08;;;;;;;14.53;11.40;;;7.00;99.90;;;-141.84;78.93;19230.59;5092988;28;20189;-61
2024/02/27 01:32:36;;;;;;;14.00;11.03;;;7.00;99.90;;;-141.84;79.67;19541.50;5094197;28;20220;-62
2024/02/27 01:35:05;;;;;;;11.77;10.57;;;7.00;99.90;;;-141.84;77.88;18968.47;5091781;28;20278;-60
2024/02/27 01:37:35;;;;;;;14.53;11.17;;;7.10;99.90;;;-141.84;78.38;19076.16;5092010;28;20220;-60
2024/02/27 01:40:04;;;;;;;13.57;11.10;;;7.00;99.90;;;-141.84;78.59;19133.06;5091200;28;20255;-60
2024/02/27 01:42:32;;;;;;;13.87;10.33;;;7.00;99.90;;;-141.84;77.81;18921.75;5091584;28;20198;-61
2024/02/27 01:45:08;;;;;;;13.63;9.97;;;7.00;99.90;;;-141.84;77.73;18952.22;5091659;28;20272;-61
2024/02/27 01:47:36;;;;;;;13.27;9.90;;;6.90;99.90;;;-141.84;77.91;18911.56;5092849;28;20330;-61
2024/02/27 01:50:06;;;;;;;12.77;10.37;;;7.00;99.90;;;-141.84;77.95;18931.91;5091453;28;20222;-61
2024/02/27 01:52:37;;;;;;;11.97;9.40;;;6.90;99.90;;;-141.84;78.19;19039.59;5091149;28;20234;-62
2024/02/27 01:55:06;;;;;;;12.77;9.60;;;6.80;99.90;;;-141.84;77.93;18978.63;5091777;28;20243;-61
2024/02/27 01:57:36;;;;;;;12.30;9.80;;;6.80;99.90;;;-141.84;79.14;19320.00;5091395;28;20249;-61
2024/02/27 02:00:09;;;;;;;12.10;9.33;;;6.70;99.90;;;-141.84;78.89;19218.41;5094140;28;20184;-59
2024/02/27 02:02:43;;;;;;;12.63;9.83;;;6.70;99.90;;;-141.84;78.59;19057.88;5086843;28;20224;-61
2024/02/27 02:05:11;;;;;;;13.27;9.60;;;6.80;99.90;;;-141.84;79.22;19360.66;5091288;28;20268;-61
2024/02/27 02:07:42;;;;;;;12.77;9.30;;;6.70;99.90;;;-141.84;79.26;19334.22;5091715;28;20323;-62
2024/02/27 02:10:12;;;;;;;12.17;8.90;;;6.60;99.90;;;-141.84;79.69;19563.88;5091029;28;20215;-60
2024/02/27 02:12:41;;;;;;;10.83;9.40;;;6.60;99.90;;;-141.84;79.52;19425.69;5092099;28;20675;-61
2024/02/27 02:15:11;;;;;;;13.80;9.70;;;6.60;99.90;;;-141.84;79.60;19427.72;5092699;28;20243;-60
2024/02/27 02:17:42;;;;;;;12.67;9.73;;;6.50;99.90;;;-141.84;79.98;19580.13;5090638;28;20220;-60
2024/02/27 02:20:17;;;;;;;10.20;8.83;;;6.50;99.90;;;-141.84;80.43;19882.94;5091221;28;20725;-60
2024/02/27 02:22:45;;;;;;;13.50;8.90;;;6.50;99.90;;;-141.84;81.98;21629.16;5091027;28;20306;-61
2024/02/27 02:25:21;;;;;;;12.03;9.40;;;6.40;99.90;;;-141.84;81.82;21558.00;5090765;28;20235;-61
2024/02/27 02:27:53;;;;;;;11.13;9.10;;;6.40;99.90;;;-141.84;82.12;21840.63;5091218;28;20250;-60
2024/02/27 02:30:23;;;;;;;11.50;9.30;;;6.30;99.90;;;-141.84;83.04;23583.66;5092344;28;20203;-61
2024/02/27 02:32:52;;;;;;;11.40;8.90;;;6.30;99.90;;;-141.84;83.98;27552.59;5093205;28;20298;-59
2024/02/27 02:35:23;;;;;;;10.90;8.50;;;6.40;99.90;;;-141.84;82.85;23589.75;5079645;28;20925;-59
2024/02/27 02:37:52;;;;;;;11.27;8.53;;;6.20;99.90;;;-141.84;82.85;23294.78;5090651;28;20247;-63
2024/02/27 02:40:21;;;;;;;9.60;8.60;;;6.20;99.90;;;-141.84;84.99;30398.47;5091411;28;20223;-59
2024/02/27 02:42:50;;;;;;;9.73;8.40;;;6.10;99.90;;;-141.84;81.56;21375.00;5092531;28;20239;-59
2024/02/27 02:45:19;;;;;;;10.63;8.67;;;6.20;99.90;;;-141.84;81.13;20273.19;5092850;28;20266;-61
2024/02/27 02:47:47;;;;;;;14.37;8.20;;;6.30;99.90;;;-141.84;83.07;23506.34;5090483;28;20227;-60
2024/02/27 02:50:21;;;;;;;8.73;7.80;;;6.10;99.90;;;-141.84;83.35;24635.53;5090882;28;20234;-60
2024/02/27 02:52:50;;;;;;;10.60;7.93;;;6.10;99.90;;;-141.84;81.30;20844.38;5074655;28;20227;-59
2024/02/27 02:55:19;;;;;;;9.43;7.57;;;6.20;99.90;;;-141.84;83.57;24409.69;5091523;28;20219;-59
2024/02/27 02:57:47;;;;;;;8.33;7.43;;;6.10;99.90;;;-141.84;83.27;24633.50;5090357;28;20235;-59
2024/02/27 03:00:18;;;;;;;11.93;8.47;;;6.00;99.90;;;-141.84;83.01;23909.16;5090616;28;20191;-59
2024/02/27 03:02:46;;;;;;;8.60;6.90;;;6.00;99.90;;;-141.84;83.11;23274.44;5091427;28;20241;-60
2024/02/27 03:05:19;;;;;;;7.50;6.70;;;5.90;99.90;;;-141.84;81.14;20437.81;5091344;28;20306;-59
2024/02/27 03:07:47;;;;;;;7.40;6.60;;;6.00;99.90;;;-141.84;81.04;20413.44;5090790;28;20369;-59
2024/02/27 03:10:18;;;;;;;7.93;6.87;;;6.00;99.90;;;-141.84;78.83;18980.66;5089666;28;20215;-59
2024/02/27 03:12:47;;;;;;;7.33;6.27;;;6.10;99.90;;;-141.84;78.17;18877.03;5091110;28;20211;-60
2024/02/27 03:15:16;;;;;;;7.30;6.27;;;6.00;99.90;;;-141.84;78.49;18950.19;5091018;28;20646;-60
2024/02/27 03:17:44;;;;;;;9.03;6.27;;;6.00;99.90;;;-141.84;79.13;19102.56;5051016;28;20763;-60
2024/02/27 03:20:13;;;;;;;6.73;6.03;;;6.00;99.90;;;-141.84;81.08;20200.00;5091708;28;20223;-60
2024/02/27 03:22:42;;;;;;;8.43;6.60;;;5.90;99.90;;;-141.84;79.95;19468.34;5091327;28;20299;-59
2024/02/27 03:25:11;;;;;;;8.23;6.00;;;6.00;99.90;;;-141.84;79.46;19135.09;5090942;28;20253;-60
2024/02/27 03:27:40;;;;;;;6.77;6.07;;;6.00;99.90;;;-141.84;78.75;18994.88;5090322;28;20274;-60
2024/02/27 03:30:11;;;;;;;7.23;6.17;;;6.00;99.90;;;-141.84;78.71;18964.41;5091093;28;20202;-59
2024/02/27 03:32:39;;;;;;;7.13;5.90;;;6.00;99.90;;;-141.84;79.48;19212.31;5090069;28;20296;-59
2024/02/27 03:35:10;;;;;;;6.50;5.60;;;5.90;99.90;;;-141.84;78.34;18946.13;5090857;28;20577;-59
2024/02/27 03:37:39;;;;;;;6.33;5.73;;;6.00;99.90;;;-141.84;77.24;18718.56;5091970;28;20220;-59
2024/02/27 03:40:10;;;;;;;8.03;5.87;;;6.00;99.90;;;-141.84;76.17;18566.16;5089999;28;20266;-62
2024/02/27 03:42:39;;;;;;;6.20;5.60;;;6.00;99.90;;;-141.84;77.73;18749.03;5090672;28;20237;-60
2024/02/27 03:45:10;;;;;;;6.50;5.60;;;6.00;99.90;;;-141.84;79.68;19259.03;5091370;28;20265;-59
2024/02/27 03:47:39;;;;;;;5.93;5.30;;;5.90;99.90;;;-141.84;79.03;19063.97;5090455;28;20227;-59
2024/02/27 03:50:08;;;;;;;6.03;5.43;;;5.90;99.90;;;-141.84;80.00;19395.19;5090040;28;20284;-59
2024/02/27 03:52:36;;;;;;;6.03;5.43;;;5.90;99.90;;;-141.84;80.99;20080.09;5089684;28;20613;-60
2024/02/27 03:55:06;;;;;;;5.90;5.37;;;5.80;99.90;;;-141.84;82.21;21574.25;5087090;28;20243;-59
2024/02/27 03:57:35;;;;;;;6.00;5.40;;;5.80;99.90;;;-141.84;82.13;21537.66;5090454;28;20663;-60
2024/02/27 04:00:09;;;;;;;6.10;5.43;;;5.80;99.90;;;-141.84;82.82;22967.31;5090799;28;20192;-60
2024/02/27 04:02:38;;;;;;;6.50;5.60;;;5.70;99.90;;;-141.84;82.64;22186.31;5082891;28;20298;-59
2024/02/27 04:05:10;;;;;;;6.20;5.60;;;5.80;99.90;;;-141.84;81.50;20728.50;5091955;28;20227;-59
2024/02/27 04:07:38;;;;;;;5.43;4.93;;;5.80;99.90;;;-141.84;81.62;20746.81;5090680;28;20258;-59
2024/02/27 04:10:08;;;;;;;6.40;5.80;;;5.80;99.90;;;-141.84;80.23;19712.22;5094588;28;20268;-58
2024/02/27 04:12:37;;;;;;;6.67;5.97;;;5.90;99.90;;;-141.84;79.19;19094.44;5092981;28;20258;-60
2024/02/27 04:15:08;;;;;;;6.43;5.33;;;5.90;99.90;;;-141.84;80.76;19968.31;5094011;28;20192;-60
2024/02/27 04:17:39;;;;;;;6.27;4.93;;;5.80;99.90;;;-141.84;79.52;19196.06;5094705;28;20797;-58
2024/02/27 04:20:08;;;;;;;5.20;4.70;;;5.90;99.90;;;-141.84;81.41;20421.56;5094849;28;20220;-60
2024/02/27 04:22:38;;;;;;;6.13;4.97;;;5.80;99.90;;;-141.84;81.25;20189.84;5094190;28;20215;-60
2024/02/27 04:25:07;;;;;;;5.17;4.63;;;5.70;99.90;;;-141.84;81.15;20031.31;5094508;28;20310;-60
2024/02/27 04:27:37;;;;;;;4.80;4.40;;;5.60;99.90;;;-141.84;82.33;21730.81;5093880;28;20223;-60
2024/02/27 04:30:08;;;;;;;5.67;5.13;;;5.50;99.90;;;-141.84;82.40;21362.81;5094849;28;20196;-60
2024/02/27 04:32:39;;;;;;;5.23;4.63;;;5.50;99.90;;;-141.84;82.54;21531.56;5094356;28;20220;-60
2024/02/27 04:35:08;;;;;;;5.43;4.93;;;5.40;99.90;;;-141.84;84.03;24938.75;5086023;28;20606;-60
2024/02/27 04:37:36;;;;;;;5.00;4.50;;;5.40;99.90;;;-141.84;83.17;23321.22;5093429;28;20284;-61
2024/02/27 04:40:06;;;;;;;5.60;4.70;;;5.40;99.90;;;-141.84;83.09;24389.34;5092792;28;20231;-59
2024/02/27 04:42:36;;;;;;;5.23;4.73;;;5.40;99.90;;;-141.84;82.54;21470.56;5093001;28;20615;-59
2024/02/27 04:45:07;;;;;;;5.60;5.00;;;5.40;99.90;;;-141.84;84.19;25936.03;5069468;28;20199;-60
2024/02/27 04:47:40;;;;;;;5.43;4.73;;;5.30;99.90;;;-141.84;85.36;30751.06;5094266;28;20239;-59
2024/02/27 04:50:10;;;;;;;5.67;4.60;;;5.30;99.90;;;-141.84;85.57;32689.72;5090466;28;20714;-59
2024/02/27 04:52:38;;;;;;;5.27;4.70;;;5.30;99.90;;;-141.84;83.44;24053.63;5092790;28;20228;-59
2024/02/27 04:55:08;;;;;;;5.77;4.63;;;5.30;99.90;;;-141.84;84.44;26687.22;5084928;28;20223;-60
2024/02/27 04:57:36;;;;;;;6.00;5.17;;;5.30;99.90;;;-141.84;83.75;24562.28;5091628;28;20609;-60
2024/02/27 05:00:09;;;;;;;5.27;4.70;;;5.30;99.90;;;-141.84;81.92;21281.47;5093416;28;20283;-60
2024/02/27 05:02:38;;;;;;;5.63;5.03;;;5.30;99.90;;;-141.84;81.03;19781.31;5094212;28;20302;-59
2024/02/27 05:05:07;;;;;;;5.57;5.07;;;5.30;99.90;;;-141.84;81.22;20340.25;5091881;28;20640;-60
2024/02/27 05:07:35;;;;;;;5.20;4.70;;;5.30;99.90;;;-141.84;81.44;20437.81;5092609;28;20670;-59
2024/02/27 05:10:05;;;;;;;5.20;4.70;;;5.20;99.90;;;-141.84;81.24;20382.94;5090590;28;20227;-60
2024/02/27 05:12:33;;;;;;;5.43;4.77;;;5.30;99.90;;;-141.84;81.24;20004.88;5092148;28;20242;-60
2024/02/27 05:15:01;;;;;;;5.67;5.07;;;5.30;99.90;;;-141.84;79.46;19169.63;5093153;28;20227;-60
2024/02/27 05:17:31;;;;;;;5.57;4.60;;;5.30;99.90;;;-141.84;79.53;19055.84;5094832;28;20227;-60
2024/02/27 05:19:59;;;;;;;5.20;4.70;;;5.30;99.90;;;-141.84;80.07;19261.06;5092151;28;20222;-58
2024/02/27 05:22:28;;;;;;;4.87;4.37;;;5.20;99.90;;;-141.84;80.90;19862.63;5083800;28;20257;-59
2024/02/27 05:24:56;;;;;;;5.07;4.57;;;5.20;99.90;;;-141.84;81.25;20132.94;5092698;28;20227;-60
2024/02/27 05:27:24;;;;;;;5.97;5.00;;;5.20;99.90;;;-141.84;81.53;20246.75;5092635;28;20262;-59
2024/02/27 05:29:53;;;;;;;5.00;4.50;;;5.20;99.90;;;-141.84;80.91;19665.47;5093192;28;20227;-60
2024/02/27 05:32:23;;;;;;;5.40;4.40;;;5.20;99.90;;;-141.84;81.49;20242.69;5093353;28;20219;-60
2024/02/27 05:34:53;;;;;;;5.83;5.20;;;5.20;99.90;;;-141.84;81.22;19846.34;5092317;28;20282;-59
2024/02/27 05:37:21;;;;;;;4.90;4.50;;;5.10;99.90;;;-141.84;82.52;21558.00;5091584;28;20688;-59
2024/02/27 05:39:49;;;;;;;5.50;4.53;;;5.10;99.90;;;-141.84;80.24;19435.84;5091921;28;20237;-60
2024/02/27 05:42:17;;;;;;;5.00;4.50;;;5.20;99.90;;;-141.84;80.48;19397.22;5092331;28;20690;-58
2024/02/27 05:44:46;;;;;;;5.80;4.80;;;5.10;99.90;;;-141.84;81.01;19884.97;5093632;28;20228;-59
2024/02/27 05:47:14;;;;;;;5.40;4.73;;;5.10;99.90;;;-141.84;80.70;19630.94;5090071;28;20246;-59
2024/02/27 05:49:43;;;;;;;4.90;4.47;;;5.20;99.90;;;-141.84;80.98;19870.75;5090783;28;20226;-59
2024/02/27 05:52:12;;;;;;;5.30;4.77;;;5.10;99.90;;;-141.84;79.61;19220.44;5092625;28;20218;-61
2024/02/27 05:54:41;;;;;;;5.27;4.73;;;5.20;99.90;;;-141.84;81.68;20197.97;5093457;28;20434;-60
2024/02/27 05:57:11;;;;;;;6.30;5.20;;;5.10;99.90;;;-141.84;82.10;20797.63;5084521;28;20198;-59
2024/02/27 05:59:39;;;;;;;5.53;4.97;;;5.00;99.90;;;-141.84;81.64;20413.44;5094494;28;20231;-59
2024/02/27 06:02:08;;;;;;;9.47;5.23;;;5.10;99.90;;;-141.84;83.37;22900.19;5091974;28;20250;-58
2024/02/27 06:04:36;;;;;;;5.57;4.93;;;4.80;99.90;;;-141.84;81.20;20035.38;5091733;28;20284;-60
2024/02/27 06:07:05;;;;;;;8.37;5.20;;;5.00;99.90;;;-141.84;81.65;20521.16;5092569;28;20619;-59
2024/02/27 06:09:35;;;;;;;6.50;4.87;;;5.10;99.90;;;-141.84;81.16;19909.34;5090731;28;20228;-60
2024/02/27 06:12:03;;;;;;;5.50;5.00;;;5.00;99.90;;;-141.84;79.47;18984.72;5091561;28;20203;-60
2024/02/27 06:14:31;;;;;;;6.33;5.33;;;5.00;99.90;;;-141.84;80.42;19376.91;5090755;28;20251;-59
2024/02/27 06:16:59;;;;;;;5.83;4.80;;;5.00;99.90;;;-141.84;81.57;20212.19;5090897;28;20287;-60
2024/02/27 06:19:30;;;;;;;6.83;5.40;;;5.00;99.90;;;-141.84;80.06;19452.09;5090599;28;20265;-59
2024/02/27 06:22:15;;;;;;;9.10;5.10;;;5.00;99.90;;;-141.84;81.39;19988.63;5092001;28;20229;-59
2024/02/27 06:24:44;;;;;;;5.43;4.60;;;5.00;99.90;;;-141.84;81.47;20195.94;5085315;28;20191;-60
2024/02/27 06:27:13;;;;;;;5.70;4.80;;;5.00;99.90;;;-141.84;82.28;21149.31;5092906;28;20198;-59
2024/02/27 06:29:42;;;;;;;6.57;5.17;;;5.00;99.90;;;-141.84;82.19;20913.50;5090398;28;20258;-60
2024/02/27 06:32:11;;;;;;;5.83;5.33;;;5.00;99.90;;;-141.84;80.74;19730.50;5089599;28;20231;-60
2024/02/27 06:34:41;;;;;;;6.43;5.83;;;5.00;99.90;;;-141.84;82.37;20982.63;5089753;28;20254;-59
2024/02/27 06:37:09;;;;;;;6.63;5.93;;;5.00;99.90;;;-141.84;81.13;20112.59;5085652;28;20218;-59
2024/02/27 06:39:41;;;;;;;6.03;5.40;;;5.00;99.90;;;-141.84;81.60;20317.91;5091704;28;20234;-59
2024/02/27 06:42:10;;;;;;;6.20;5.60;;;5.00;99.90;;;-141.84;81.44;20017.09;5090032;28;20672;-59
2024/02/27 06:44:43;;;;;;;6.87;5.93;;;5.10;99.90;;;-141.84;80.09;19346.44;5088535;28;20222;-59
2024/02/27 06:47:11;;;;;;;9.47;6.53;;;5.10;99.90;;;-141.84;79.22;19049.75;5093386;28;20660;-60
2024/02/27 06:49:40;;;;;;;7.83;7.03;;;5.20;99.90;;;-141.84;77.84;18671.81;5091441;28;20678;-61
2024/02/27 06:52:08;;;;;;;6.77;6.00;;;5.20;99.90;;;-141.84;78.56;18830.31;5089938;28;20231;-61
2024/02/27 06:54:36;;;;;;;6.73;6.03;;;5.20;99.90;;;-141.84;78.82;18933.94;5089942;28;20766;-60
2024/02/27 06:57:05;;;;;;;7.30;6.60;;;5.30;99.90;;;-141.84;79.38;18978.63;5082312;28;20260;-60
2024/02/27 06:59:37;;;;;;;7.07;6.37;;;5.30;99.90;;;-141.84;78.82;18864.84;5090712;28;20237;-59
2024/02/27 07:02:06;;;;;;;7.30;6.60;;;5.20;99.90;;;-141.84;79.51;19102.56;5088863;28;20260;-61
2024/02/27 07:04:35;;;;;;;8.00;6.33;;;5.30;99.90;;;-141.84;79.35;19003.00;5089867;28;20213;-62
2024/02/27 07:07:05;;;;;;;8.27;6.50;;;5.20;99.90;;;-141.84;78.37;18854.69;5090876;28;20840;-60
2024/02/27 07:09:34;;;;;;;8.60;6.83;;;5.30;99.90;;;-141.84;76.91;18582.44;5091188;28;20611;-61
2024/02/27 07:12:03;;;;;;;7.17;6.20;;;5.30;99.90;;;-141.84;76.85;18564.13;5090907;28;20574;-62
2024/02/27 07:14:33;;;;;;;7.17;6.37;;;5.40;99.90;;;-141.84;76.75;18582.44;5090947;28;20246;-61
2024/02/27 07:17:03;;;;;;;7.77;6.90;;;5.40;99.90;;;-141.84;76.95;18580.41;5090011;28;20218;-60
2024/02/27 07:19:31;;;;;;;7.03;5.90;;;5.40;99.90;;;-141.84;76.44;18549.91;5090209;28;20284;-60
2024/02/27 07:21:59;;;;;;;7.00;6.30;;;5.50;99.90;;;-141.84;78.21;18751.06;5089337;28;20294;-59
2024/02/27 07:24:27;;;;;;;7.97;6.83;;;5.50;99.90;;;-141.84;76.48;18572.25;5081837;28;20562;-61
2024/02/27 07:26:56;;;;;;;10.50;9.00;;;5.60;99.90;;;-141.84;76.74;18606.81;5089731;28;20215;-60
2024/02/27 07:29:25;;;;;;;10.93;9.17;;;5.60;99.90;;;-141.84;77.28;18675.88;5090002;28;20310;-58
2024/02/27 07:31:53;;;;;;;9.53;8.03;;;5.60;99.90;;;-141.84;75.72;18488.97;5090620;28;20302;-60
2024/02/27 07:34:23;;;;;;;8.10;6.93;;;5.60;99.90;;;-141.84;77.42;18633.22;5088746;28;20223;-60
2024/02/27 07:36:51;;;;;;;8.63;7.60;;;5.60;99.90;;;-141.84;76.21;18537.72;5090765;28;20310;-61
2024/02/27 07:39:20;;;;;;;9.23;7.87;;;5.70;99.90;;;-141.84;75.42;18460.53;5087586;28;20207;-61
2024/02/27 07:41:49;;;;;;;8.93;7.33;;;5.70;99.90;;;-141.84;75.52;18513.34;5089128;28;20224;-60
2024/02/27 07:44:17;;;;;;;10.33;7.43;;;5.70;99.90;;;-141.84;75.94;18545.84;5088111;28;20251;-59
2024/02/27 07:46:46;;;;;;;9.20;7.43;;;5.70;99.90;;;-141.84;75.63;18511.31;5085177;28;20258;-59
2024/02/27 07:49:14;;;;;;;10.13;8.03;;;5.70;99.90;;;-141.84;74.06;18432.09;5087790;28;20272;-60
2024/02/27 07:51:44;;;;;;;8.33;7.47;;;5.80;99.90;;;-141.84;74.24;18458.50;5089641;28;20256;-60
2024/02/27 07:54:15;;;;;;;9.37;8.37;;;5.80;99.90;;;-141.84;73.30;18423.94;5088390;28;20195;-59
2024/02/27 07:56:44;;;;;;;11.70;9.63;;;5.90;99.90;;;-141.84;73.23;18391.44;5087055;28;20312;-60
2024/02/27 07:59:12;;;;;;;13.53;10.40;;;5.90;99.90;;;-141.84;72.85;18413.78;5085064;28;20233;-59
2024/02/27 08:01:40;;;;;;;10.03;8.03;;;6.10;99.90;;;-141.84;71.65;18393.47;5087036;28;20282;-59
2024/02/27 08:04:09;;;;;;;10.03;7.97;;;6.10;99.90;;;-141.84;71.72;18369.09;5088433;28;20803;-58
2024/02/27 08:06:39;;;;;;;10.27;8.87;;;6.10;99.90;;;-141.84;71.24;18326.44;5088873;28;20192;-59
2024/02/27 08:09:12;;;;;;;10.47;9.37;;;6.10;99.90;;;-141.84;71.88;18419.88;5091421;28;20230;-60
2024/02/27 08:11:41;;;;;;;10.13;8.57;;;6.10;99.90;;;-141.84;71.73;18379.25;5092317;28;20595;-60
2024/02/27 08:14:09;;;;;;;9.73;8.47;;;6.10;99.90;;;-141.84;72.32;18379.25;5093517;28;20424;-59
2024/02/27 08:16:40;;;;;;;10.47;8.80;;;6.10;99.90;;;-141.84;72.16;18411.75;5093309;28;20864;-60
2024/02/27 08:19:09;;;;;;;10.90;8.30;;;6.10;99.90;;;-141.84;72.32;18436.16;5084570;28;20211;-60
2024/02/27 08:21:41;;;;;;;9.60;8.60;;;6.10;99.90;;;-141.84;72.28;18395.50;5093440;28;20267;-61
2024/02/27 08:24:12;;;;;;;10.17;9.13;;;6.10;99.90;;;-141.84;70.62;18354.88;5093511;28;20389;-61
2024/02/27 08:26:44;;;;;;;11.83;9.10;;;6.20;99.90;;;-141.84;70.42;18352.84;5093346;28;20223;-62
2024/02/27 08:29:20;;;;;;;10.17;9.00;;;6.10;99.90;;;-141.84;71.17;18391.44;5092882;28;20223;-61
2024/02/27 08:31:49;;;;;;;11.47;9.70;;;6.10;99.90;;;-141.84;71.36;18415.81;5084567;28;20220;-61
2024/02/27 08:34:22;;;;;;;11.13;9.83;;;6.20;99.90;;;-141.84;70.25;18356.91;5092891;28;20253;-61
2024/02/27 08:36:50;;;;;;;11.20;9.90;;;6.20;99.90;;;-141.84;70.72;18373.16;5091313;28;20235;-60
2024/02/27 08:39:22;;;;;;;12.43;11.07;;;6.20;99.90;;;-141.84;70.61;18377.22;5093727;28;20272;-62
2024/02/27 08:41:50;;;;;;;14.40;11.57;;;6.20;99.90;;;-141.84;69.87;18356.91;5092536;28;20224;-60
2024/02/27 08:44:21;;;;;;;15.63;12.67;;;6.30;99.90;;;-141.84;70.28;18367.06;5093131;28;20240;-62
2024/02/27 08:46:51;;;;;;;17.07;14.03;;;6.20;99.90;;;-141.84;70.67;18385.34;5092156;28;20716;-61
2024/02/27 08:49:21;;;;;;;16.07;13.30;;;6.20;99.90;;;-141.84;69.50;18365.03;5093033;28;20259;-60
2024/02/27 08:51:50;;;;;;;17.20;13.77;;;6.30;99.90;;;-141.84;68.23;18342.69;5092776;28;20241;-61
2024/02/27 08:54:22;;;;;;;26.73;19.53;;;6.40;99.90;;;-141.84;67.50;18354.88;5094285;28;20667;-61
2024/02/27 08:56:51;;;;;;;16.50;14.70;;;6.60;99.90;;;-141.84;67.03;18371.13;5096270;28;20216;-60
2024/02/27 08:59:22;;;;;;;16.97;13.80;;;6.60;99.90;;;-141.84;67.65;18391.44;5097077;28;20231;-61
2024/02/27 09:01:50;;;;;;;16.70;13.83;;;6.60;99.90;;;-141.84;67.58;18375.19;5096629;28;20630;-61
2024/02/27 09:04:21;;;;;;;16.13;13.50;;;6.70;99.90;;;-141.84;67.45;18379.25;5096504;28;20228;-60
2024/02/27 09:06:49;;;;;;;16.27;14.00;;;6.70;99.90;;;-141.84;67.21;18403.63;5096290;28;20180;-60
2024/02/27 09:09:22;;;;;;;17.10;14.27;;;6.80;99.90;;;-141.84;67.20;18381.28;5096820;28;20227;-60
2024/02/27 09:11:51;;;;;;;14.73;12.77;;;6.70;99.90;;;-141.84;67.80;18381.28;5096278;28;20587;-59
2024/02/27 09:14:22;;;;;;;14.53;12.90;;;6.80;99.90;;;-141.84;66.02;18389.41;5096683;28;20808;-60
2024/02/27 09:16:51;;;;;;;15.20;12.63;;;7.00;99.90;;;-141.84;66.87;18446.31;5096138;28;20365;-59
2024/02/27 09:19:22;;;;;;;14.53;12.37;;;7.10;99.90;;;-141.84;65.86;18405.66;5095913;28;20224;-60
2024/02/27 09:21:50;;;;;;;15.23;12.63;;;7.10;99.90;;;-141.84;65.05;18432.09;5095848;28;20234;-60
2024/02/27 09:24:24;;;;;;;15.57;12.47;;;7.10;99.90;;;-141.84;65.00;18415.81;5096918;28;20198;-60
2024/02/27 09:26:52;;;;;;;14.60;12.07;;;7.10;99.90;;;-141.84;66.87;18405.66;5095472;28;20597;-59
2024/02/27 09:29:21;;;;;;;13.87;12.23;;;7.10;99.90;;;-141.84;64.52;18415.81;5096191;28;20216;-60
2024/02/27 09:31:49;;;;;;;15.30;11.93;;;7.20;99.90;;;-141.84;65.08;18409.72;5094763;28;20215;-60
2024/02/27 09:34:20;;;;;;;17.30;12.37;;;7.20;99.90;;;-141.84;66.17;18421.91;5095591;28;20215;-59
2024/02/27 09:36:49;;;;;;;14.73;12.03;;;7.10;99.90;;;-141.84;68.52;18436.16;5095200;28;20208;-59
2024/02/27 09:39:22;;;;;;;14.90;12.83;;;7.10;99.90;;;-141.84;68.22;18442.25;5096128;28;20204;-59
2024/02/27 09:42:07;;;;;;;13.63;12.00;;;7.10;99.90;;;-141.84;65.53;18409.72;5095411;28;20230;-60
2024/02/27 09:44:42;;;;;;;16.30;13.03;;;7.30;99.90;;;-141.84;63.10;18413.78;5089760;28;20215;-60
2024/02/27 09:47:13;;;;;;;17.33;13.30;;;7.50;99.90;;;-141.84;64.38;18432.09;5094848;28;20254;-59
2024/02/27 09:49:49;;;;;;;18.03;13.80;;;7.50;99.90;;;-141.84;64.27;18432.09;5039541;28;20218;-60
2024/02/27 09:52:24;;;;;;;15.23;13.37;;;7.40;99.90;;;-141.84;64.27;18421.91;5092581;28;20228;-62
2024/02/27 09:55:01;;;;;;;15.67;13.00;;;7.60;99.90;;;-141.84;64.18;18419.88;5087594;28;20233;-59
2024/02/27 09:57:29;;;;;;;17.47;14.13;;;7.60;99.90;;;-141.84;63.92;18448.34;5094080;28;20204;-60
2024/02/27 10:00:01;;;;;;;18.23;14.60;;;7.60;99.90;;;-141.84;63.71;18468.66;5095677;28;20222;-60
2024/02/27 10:02:29;;;;;;;20.07;15.30;;;7.60;99.90;;;-141.84;64.11;18423.94;5094703;28;20250;-61
2024/02/27 10:05:04;;;;;;;18.30;13.93;;;7.50;99.90;;;-141.84;64.47;18452.41;5095773;28;20239;-58
2024/02/27 10:07:39;;;;;;;18.50;14.70;;;7.60;99.90;;;-141.84;64.97;18434.13;5086549;28;20212;-60
2024/02/27 10:10:11;;;;;;;17.53;14.83;;;7.70;99.90;;;-141.84;63.85;18434.13;5095338;28;20226;-59
2024/02/27 10:12:41;;;;;;;17.33;14.50;;;7.70;99.90;;;-141.84;64.33;18436.16;5096353;28;20218;-59
2024/02/27 10:15:10;;;;;;;17.37;15.00;;;7.70;99.90;;;-141.84;65.16;18405.66;5096172;28;20656;-59
2024/02/27 10:17:43;;;;;;;17.37;14.70;;;7.70;99.90;;;-141.84;65.86;18462.56;5095648;28;20253;-61